createdAt,value
2022-08-17T00:02:27.095Z,25.40
2022-08-17T00:06:35.938Z,25.60
2022-08-17T00:10:42.315Z,25.60
2022-08-17T00:14:48.360Z,25.40
2022-08-17T00:19:07.381Z,25.40
2022-08-17T00:23:18.143Z,25.40
2022-08-17T00:27:23.671Z,25.40
2022-08-17T00:31:29.486Z,25.30
2022-08-17T00:35:34.934Z,25.40
2022-08-17T00:39:42.971Z,25.30
2022-08-17T00:43:51.137Z,25.30
2022-08-17T00:47:56.552Z,25.30
2022-08-17T00:52:11.673Z,25.20
2022-08-17T00:56:25.313Z,25.20
2022-08-17T01:00:37.072Z,25.20
2022-08-17T01:04:42.650Z,25.30
2022-08-17T01:08:48.197Z,25.20
2022-08-17T01:13:07.220Z,25.20
2022-08-17T01:17:13.226Z,25.10
2022-08-17T01:21:23.218Z,25.10
2022-08-17T01:25:32.125Z,25.10
2022-08-17T01:29:38.815Z,25.10
2022-08-17T01:33:44.252Z,25.00
2022-08-17T01:37:49.738Z,25.00
2022-08-17T01:42:07.261Z,25.00
2022-08-17T01:46:12.867Z,25.00
2022-08-17T01:50:20.925Z,25.00
2022-08-17T01:54:27.946Z,25.00
2022-08-17T01:58:37.591Z,25.00
2022-08-17T02:02:46.033Z,25.00
2022-08-17T02:06:53.272Z,24.90
2022-08-17T02:11:00.245Z,24.90
2022-08-17T02:15:10.392Z,24.90
2022-08-17T02:19:18.516Z,24.90
2022-08-17T02:23:27.409Z,24.80
2022-08-17T02:27:32.755Z,24.80
2022-08-17T02:31:40.766Z,24.70
2022-08-17T02:35:46.334Z,24.50
2022-08-17T02:39:51.797Z,24.60
2022-08-17T02:43:57.246Z,24.50
2022-08-17T02:48:05.881Z,24.50
2022-08-17T02:52:11.525Z,24.50
2022-08-17T02:56:16.971Z,24.50
2022-08-17T03:00:25.479Z,24.50
2022-08-17T03:04:35.343Z,24.50
2022-08-17T03:08:40.998Z,24.50
2022-08-17T03:12:47.771Z,24.50
2022-08-17T03:16:53.131Z,24.50
2022-08-17T03:21:04.646Z,24.40
2022-08-17T03:25:11.828Z,24.40
2022-08-17T03:29:19.374Z,24.40
2022-08-17T03:33:25.276Z,24.40
2022-08-17T03:37:33.247Z,24.40
2022-08-17T03:41:38.926Z,24.40
2022-08-17T03:45:57.844Z,24.40
2022-08-17T03:50:15.648Z,24.40
2022-08-17T03:54:36.391Z,24.40
2022-08-17T03:58:41.883Z,24.30
2022-08-17T04:02:47.282Z,24.40
2022-08-17T04:06:52.726Z,24.40
2022-08-17T04:11:01.983Z,24.40
2022-08-17T04:15:08.401Z,24.40
2022-08-17T04:19:13.803Z,24.40
2022-08-17T04:23:21.365Z,24.50
2022-08-17T04:27:29.343Z,24.40
2022-08-17T04:31:34.763Z,24.50
2022-08-17T04:35:44.083Z,24.60
2022-08-17T04:40:09.490Z,24.70
2022-08-17T04:44:36.964Z,24.80
2022-08-17T04:48:45.874Z,25.00
2022-08-17T04:52:51.195Z,25.20
2022-08-17T04:56:56.618Z,25.30
2022-08-17T05:01:05.976Z,25.60
2022-08-17T05:05:12.243Z,25.60
2022-08-17T05:09:19.728Z,25.80
2022-08-17T05:13:27.156Z,26.10
2022-08-17T05:17:35.126Z,26.20
2022-08-17T05:21:40.491Z,26.40
2022-08-17T05:25:48.552Z,26.70
2022-08-17T05:29:55.780Z,26.90
2022-08-17T05:34:03.869Z,27.20
2022-08-17T05:38:10.274Z,27.40
2022-08-17T05:42:15.919Z,27.70
2022-08-17T05:46:26.177Z,27.90
2022-08-17T05:50:51.465Z,28.10
2022-08-17T05:55:08.936Z,27.80
2022-08-17T05:59:22.046Z,27.70
2022-08-17T06:03:39.781Z,27.30
2022-08-17T06:07:52.718Z,27.40
2022-08-17T06:12:05.720Z,27.60
2022-08-17T06:16:25.967Z,27.40
2022-08-17T06:20:48.313Z,28.10
2022-08-17T06:25:01.164Z,28.60
2022-08-17T06:29:18.737Z,29.10
2022-08-17T06:33:28.827Z,28.80
2022-08-17T06:37:48.899Z,29.00
2022-08-17T06:42:07.009Z,29.20
2022-08-17T06:46:25.499Z,29.20
2022-08-17T06:50:40.113Z,29.20
2022-08-17T06:54:54.579Z,29.00
2022-08-17T06:59:04.776Z,29.20
2022-08-17T07:03:19.115Z,29.60
2022-08-17T07:07:43.928Z,30.20
2022-08-17T07:11:54.557Z,30.80
2022-08-17T07:16:14.851Z,31.30
2022-08-17T07:20:23.752Z,31.70
2022-08-17T07:24:38.089Z,31.80
2022-08-17T07:28:45.060Z,31.90
2022-08-17T07:32:57.533Z,32.00
2022-08-17T07:37:06.569Z,31.80
2022-08-17T07:41:13.815Z,31.90
2022-08-17T07:45:31.472Z,31.80
2022-08-17T07:49:42.439Z,31.90
2022-08-17T07:53:48.189Z,31.90
2022-08-17T07:57:58.700Z,31.90
2022-08-17T08:02:17.222Z,31.80
2022-08-17T08:06:28.234Z,32.10
2022-08-17T08:10:38.650Z,32.50
2022-08-17T08:14:57.408Z,32.70
2022-08-17T08:19:04.793Z,32.80
2022-08-17T08:23:20.269Z,33.00
2022-08-17T08:27:37.107Z,33.30
2022-08-17T08:31:56.398Z,33.60
2022-08-17T08:36:12.890Z,33.70
2022-08-17T08:41:04.247Z,33.90
2022-08-17T08:45:18.818Z,33.90
2022-08-17T08:50:04.665Z,34.00
2022-08-17T08:54:22.341Z,33.80
2022-08-17T08:58:42.214Z,34.00
2022-08-17T09:03:14.297Z,34.10
2022-08-17T09:07:32.563Z,34.10
2022-08-17T09:12:01.823Z,33.80
2022-08-17T09:16:17.643Z,33.60
2022-08-17T09:20:28.286Z,33.40
2022-08-17T09:24:40.213Z,33.50
2022-08-17T09:28:52.411Z,33.60
2022-08-17T09:33:05.233Z,33.60
2022-08-17T09:37:22.911Z,33.80
2022-08-17T09:41:34.306Z,33.90
2022-08-17T09:45:46.247Z,34.20
2022-08-17T09:50:00.559Z,34.40
2022-08-17T09:54:35.216Z,34.60
2022-08-17T09:58:45.086Z,34.70
2022-08-17T10:03:16.473Z,34.80
2022-08-17T10:07:35.277Z,35.00
2022-08-17T10:12:05.773Z,35.10
2022-08-17T10:16:20.733Z,35.40
2022-08-17T10:20:30.430Z,35.60
2022-08-17T10:25:02.081Z,35.80
2022-08-17T10:29:26.028Z,36.00
2022-08-17T10:33:43.486Z,36.30
2022-08-17T10:38:15.537Z,36.80
2022-08-17T10:42:33.799Z,37.80
2022-08-17T10:46:55.595Z,38.70
2022-08-17T10:51:09.781Z,39.10
2022-08-17T10:55:17.951Z,39.70
2022-08-17T10:59:54.265Z,39.90
2022-08-17T11:04:03.675Z,40.20
2022-08-17T11:08:39.047Z,40.60
2022-08-17T11:12:57.098Z,42.70
2022-08-17T11:17:16.963Z,47.40
2022-08-17T11:21:56.083Z,52.30
2022-08-17T11:26:08.451Z,56.40
2022-08-17T11:30:16.853Z,59.20
2022-08-17T11:34:27.750Z,60.80
2022-08-17T11:38:48.794Z,62.10
2022-08-17T11:43:33.546Z,63.50
2022-08-17T11:48:26.119Z,64.50
2022-08-17T11:52:45.074Z,64.80
2022-08-17T11:56:54.167Z,63.80
2022-08-17T12:01:01.608Z,64.50
2022-08-17T12:05:14.857Z,65.20
2022-08-17T12:09:26.513Z,65.30
2022-08-17T12:13:39.890Z,65.90
2022-08-17T12:17:53.673Z,66.30
2022-08-17T12:22:04.343Z,66.70
2022-08-17T12:26:22.800Z,65.20
2022-08-17T12:30:28.707Z,65.30
2022-08-17T12:34:39.461Z,66.20
2022-08-17T12:38:52.057Z,66.40
2022-08-17T12:43:04.047Z,66.40
2022-08-17T12:47:21.987Z,66.70
2022-08-17T12:51:29.283Z,67.20
2022-08-17T12:55:40.528Z,67.30
2022-08-17T12:59:52.922Z,67.20
2022-08-17T13:04:00.825Z,64.40
2022-08-17T13:08:17.060Z,59.60
2022-08-17T13:12:34.050Z,55.70
2022-08-17T13:16:42.042Z,51.80
2022-08-17T13:20:55.635Z,48.90
2022-08-17T13:25:05.514Z,46.50
2022-08-17T13:29:11.602Z,43.80
2022-08-17T13:33:43.371Z,41.50
2022-08-17T13:38:01.788Z,40.00
2022-08-17T13:42:35.046Z,38.70
2022-08-17T13:46:57.826Z,37.80
2022-08-17T13:51:22.466Z,37.00
2022-08-17T13:55:31.212Z,36.40
2022-08-17T13:59:55.267Z,35.90
2022-08-17T14:04:03.228Z,35.80
2022-08-17T14:08:14.672Z,35.50
2022-08-17T14:12:25.135Z,35.40
2022-08-17T14:16:30.528Z,35.30
2022-08-17T14:20:35.995Z,35.40
2022-08-17T14:24:45.059Z,35.40
2022-08-17T14:28:56.644Z,35.30
2022-08-17T14:33:02.758Z,35.40
2022-08-17T14:37:08.294Z,35.40
2022-08-17T14:41:21.475Z,35.50
2022-08-17T14:45:31.752Z,35.50
2022-08-17T14:49:38.695Z,35.50
2022-08-17T14:53:45.986Z,35.50
2022-08-17T14:57:53.974Z,35.40
2022-08-17T15:02:00.823Z,35.30
2022-08-17T15:06:06.271Z,35.20
2022-08-17T15:10:12.466Z,35.00
2022-08-17T15:14:20.538Z,34.90
2022-08-17T15:18:25.943Z,34.80
2022-08-17T15:22:31.849Z,34.70
2022-08-17T15:26:38.090Z,34.60
2022-08-17T15:30:46.887Z,34.60
2022-08-17T15:34:52.315Z,34.50
2022-08-17T15:38:58.927Z,34.30
2022-08-17T15:43:08.216Z,34.20
2022-08-17T15:47:17.097Z,34.10
2022-08-17T15:51:25.377Z,33.90
2022-08-17T15:55:32.083Z,33.80
2022-08-17T15:59:38.176Z,33.60
2022-08-17T16:04:04.593Z,33.50
2022-08-17T16:08:15.879Z,33.40
2022-08-17T16:12:24.858Z,33.30
2022-08-17T16:16:31.499Z,33.20
2022-08-17T16:20:39.514Z,33.20
2022-08-17T16:24:57.229Z,33.20
2022-08-17T16:29:05.593Z,33.10
2022-08-17T16:33:15.227Z,33.00
2022-08-17T16:37:23.491Z,33.00
2022-08-17T16:41:43.076Z,32.90
2022-08-17T16:45:51.942Z,32.30
2022-08-17T16:49:57.710Z,32.40
2022-08-17T16:54:05.833Z,32.10
2022-08-17T16:58:11.397Z,31.50
2022-08-17T17:02:17.973Z,31.00
2022-08-17T17:06:32.446Z,31.10
2022-08-17T17:10:45.883Z,31.30
2022-08-17T17:14:52.627Z,31.50
2022-08-17T17:19:08.311Z,31.00
2022-08-17T17:23:31.070Z,31.00
2022-08-17T17:27:55.130Z,30.80
2022-08-17T17:32:09.604Z,30.10
2022-08-17T17:36:26.082Z,30.30
2022-08-17T17:40:38.240Z,30.40
2022-08-17T17:44:49.839Z,30.30
2022-08-17T17:48:55.217Z,30.30
2022-08-17T17:53:05.958Z,30.30
2022-08-17T17:57:21.482Z,30.20
2022-08-17T18:01:44.743Z,30.10
2022-08-17T18:06:18.745Z,30.10
2022-08-17T18:10:31.917Z,30.10
2022-08-17T18:15:00.626Z,30.10
2022-08-17T18:19:08.643Z,30.00
2022-08-17T18:23:14.333Z,29.60
2022-08-17T18:27:26.711Z,29.40
2022-08-17T18:31:32.163Z,29.10
2022-08-17T18:35:40.358Z,29.10
2022-08-17T18:39:45.789Z,29.30
2022-08-17T18:44:03.748Z,29.30
2022-08-17T18:48:21.505Z,29.20
2022-08-17T18:52:32.668Z,28.90
2022-08-17T18:56:39.085Z,28.70
2022-08-17T19:00:46.680Z,28.90
2022-08-17T19:05:10.264Z,29.20
2022-08-17T19:09:35.767Z,28.80
2022-08-17T19:13:47.140Z,28.70
2022-08-17T19:18:00.345Z,28.40
2022-08-17T19:22:28.668Z,28.20
2022-08-17T19:26:54.010Z,28.10
2022-08-17T19:31:05.925Z,28.00
2022-08-17T19:35:17.503Z,28.30
2022-08-17T19:39:38.168Z,28.60
2022-08-17T19:44:00.674Z,28.70
2022-08-17T19:48:16.629Z,28.70
2022-08-17T19:52:39.489Z,28.80
2022-08-17T19:56:50.565Z,28.80
2022-08-17T20:00:58.811Z,28.70
2022-08-17T20:05:08.000Z,28.50
2022-08-17T20:09:23.026Z,28.40
2022-08-17T20:13:39.634Z,28.50
2022-08-17T20:17:50.679Z,28.60
2022-08-17T20:21:59.348Z,28.30
2022-08-17T20:26:17.192Z,28.20
2022-08-17T20:30:40.883Z,28.20
2022-08-17T20:34:50.547Z,28.10
2022-08-17T20:38:58.844Z,28.20
2022-08-17T20:43:39.384Z,28.20
2022-08-17T20:48:15.257Z,27.90
2022-08-17T20:52:18.543Z,27.70
2022-08-17T20:56:57.656Z,27.60
2022-08-17T21:01:15.003Z,27.70
2022-08-17T21:06:00.301Z,27.60
2022-08-17T21:10:18.642Z,27.20
2022-08-17T21:14:36.703Z,27.30
2022-08-17T21:18:52.279Z,27.40
2022-08-17T21:23:18.816Z,27.10
2022-08-17T21:27:37.616Z,27.20
2022-08-17T21:31:46.123Z,27.20
2022-08-17T21:35:58.733Z,27.20
2022-08-17T21:40:19.473Z,27.10
2022-08-17T21:44:35.093Z,27.20
2022-08-17T21:48:48.348Z,27.00
2022-08-17T21:52:57.019Z,27.00
2022-08-17T21:57:04.574Z,27.00
2022-08-17T22:01:23.765Z,27.00
2022-08-17T22:05:36.359Z,26.70
2022-08-17T22:09:45.757Z,26.80
2022-08-17T22:13:51.514Z,26.80
2022-08-17T22:18:19.270Z,26.80
2022-08-17T22:22:29.272Z,26.90
2022-08-17T22:27:05.187Z,27.00
2022-08-17T22:31:14.552Z,27.00
2022-08-17T22:35:42.168Z,27.00
2022-08-17T22:39:47.683Z,27.00
2022-08-17T22:43:55.225Z,26.90
2022-08-17T22:48:04.267Z,26.90
2022-08-17T22:52:32.074Z,26.70
2022-08-17T22:56:50.766Z,26.90
2022-08-17T23:00:57.488Z,26.60
2022-08-17T23:05:24.146Z,26.50
2022-08-17T23:09:32.271Z,26.50
2022-08-17T23:13:40.034Z,26.60
2022-08-17T23:17:45.803Z,26.30
2022-08-17T23:21:55.497Z,26.50
2022-08-17T23:26:04.420Z,26.50
2022-08-17T23:30:11.627Z,26.40
2022-08-17T23:34:18.658Z,26.50
2022-08-17T23:38:27.192Z,26.50
2022-08-17T23:42:35.943Z,26.20
2022-08-17T23:46:41.696Z,26.20
2022-08-17T23:50:47.131Z,26.10
2022-08-17T23:54:52.923Z,26.00
2022-08-17T23:59:01.490Z,26.10
